Time;durP1;ratioP1;P1;durP2;ratioP2;P2;SDS_P1;SDS_P2;PMS_P1;PMS_P2;Temp;Humidity;BMP_temperature;BMP_pressure;BME280_temperature;BME280_humidity;BME280_pressure;Samples;Min_cycle;Max_cycle;Signal;HPM_P1;HPM_P2
2022/02/25 00:02:04;;;;;;;0.57;0.40;;;;;;;;;;5012529;28;20740;-68
2022/02/25 00:04:32;;;;;;;0.30;0.10;;;;;;;;;;5017904;28;20200;-67
2022/02/25 00:06:59;;;;;;;0.87;0.33;;;;;;;;;;5012406;28;20201;-68
2022/02/25 00:09:26;;;;;;;0.20;0.20;;;;;;;;;;5016130;28;20216;-69
2022/02/25 00:11:55;;;;;;;0.20;0.20;;;;;;;;;;5014368;28;20313;-68
2022/02/25 00:14:23;;;;;;;1.40;0.27;;;;;;;;;;5015865;28;20200;-68
2022/02/25 00:16:50;;;;;;;0.93;0.40;;;;;;;;;;5018984;28;20655;-67
2022/02/25 00:19:18;;;;;;;0.27;0.27;;;;;;;;;;5015489;28;20204;-67
2022/02/25 00:21:45;;;;;;;0.87;0.27;;;;;;;;;;5012504;28;20213;-68
2022/02/25 00:24:13;;;;;;;2.23;0.87;;;;;;;;;;5023901;28;20196;-67
2022/02/25 00:26:40;;;;;;;0.10;0.00;;;;;;;;;;5012997;28;20244;-67
2022/02/25 00:29:09;;;;;;;0.27;0.27;;;;;;;;;;5012435;28;20745;-69
2022/02/25 00:31:37;;;;;;;0.10;0.10;;;;;;;;;;5012746;28;20234;-67
2022/02/25 00:34:05;;;;;;;1.30;0.67;;;;;;;;;;5012020;28;20251;-69
2022/02/25 00:36:32;;;;;;;0.20;0.20;;;;;;;;;;5012894;28;20197;-67
2022/02/25 00:38:59;;;;;;;2.90;0.30;;;;;;;;;;5012164;28;20255;-67
2022/02/25 00:41:27;;;;;;;0.00;0.00;;;;;;;;;;5013936;28;20200;-67
2022/02/25 00:43:54;;;;;;;0.07;0.07;;;;;;;;;;5011849;28;20255;-68
2022/02/25 00:46:23;;;;;;;3.63;0.67;;;;;;;;;;5016589;28;20617;-68
2022/02/25 00:48:50;;;;;;;6.73;1.00;;;;;;;;;;5014566;28;20196;-68
2022/02/25 00:51:18;;;;;;;1.30;0.87;;;;;;;;;;5016400;28;20205;-67
2022/02/25 00:53:45;;;;;;;1.17;1.07;;;;;;;;;;5013359;28;20237;-69
2022/02/25 00:56:13;;;;;;;0.40;0.40;;;;;;;;;;5014223;28;20213;-68
2022/02/25 00:58:40;;;;;;;0.47;0.10;;;;;;;;;;5013552;28;20225;-67
2022/02/25 01:01:07;;;;;;;0.27;0.20;;;;;;;;;;5012831;28;20208;-68
2022/02/25 01:03:37;;;;;;;1.90;0.83;;;;;;;;;;5012233;28;20658;-69
2022/02/25 01:06:04;;;;;;;0.30;0.30;;;;;;;;;;5010025;28;20736;-68
2022/02/25 01:08:31;;;;;;;0.67;0.60;;;;;;;;;;5012767;28;20204;-69
2022/02/25 01:10:59;;;;;;;1.03;0.40;;;;;;;;;;5012084;28;20201;-68
2022/02/25 01:13:26;;;;;;;1.17;0.57;;;;;;;;;;5011822;28;20228;-67
2022/02/25 01:15:53;;;;;;;3.23;2.17;;;;;;;;;;5014919;28;20200;-68
2022/02/25 01:18:21;;;;;;;3.20;1.10;;;;;;;;;;5017813;28;20581;-68
2022/02/25 01:20:50;;;;;;;10.83;0.77;;;;;;;;;;5017819;28;20208;-68
2022/02/25 01:23:17;;;;;;;0.30;0.30;;;;;;;;;;5014897;28;20205;-67
2022/02/25 01:25:45;;;;;;;1.50;0.67;;;;;;;;;;5011822;28;20201;-69
2022/02/25 01:28:12;;;;;;;0.10;0.10;;;;;;;;;;5023305;28;20721;-68
2022/02/25 01:30:39;;;;;;;1.33;0.07;;;;;;;;;;5013419;28;20196;-67
2022/02/25 01:33:07;;;;;;;0.00;0.00;;;;;;;;;;5011577;28;20228;-67
2022/02/25 01:35:35;;;;;;;0.53;0.43;;;;;;;;;;5010038;28;20193;-67
2022/02/25 01:38:04;;;;;;;0.00;0.00;;;;;;;;;;5012560;28;20245;-69
2022/02/25 01:40:31;;;;;;;8.93;1.70;;;;;;;;;;5011615;28;20224;-67
2022/02/25 01:42:59;;;;;;;0.93;0.43;;;;;;;;;;5020390;28;20205;-67
2022/02/25 01:45:28;;;;;;;0.53;0.53;;;;;;;;;;5015780;28;20196;-74
2022/02/25 01:47:56;;;;;;;0.30;0.30;;;;;;;;;;5011987;28;20203;-67
2022/02/25 01:50:23;;;;;;;1.33;0.37;;;;;;;;;;5013877;28;20205;-70
2022/02/25 01:52:55;;;;;;;0.27;0.27;;;;;;;;;;5011077;28;20243;-68
2022/02/25 01:55:25;;;;;;;0.00;0.00;;;;;;;;;;5021729;28;21850;-68
2022/02/25 01:57:52;;;;;;;0.10;0.10;;;;;;;;;;5020156;28;20231;-68
2022/02/25 02:00:20;;;;;;;0.00;0.00;;;;;;;;;;5010806;28;20204;-67
2022/02/25 02:02:47;;;;;;;0.40;0.40;;;;;;;;;;5011137;28;20647;-68
2022/02/25 02:05:15;;;;;;;1.60;0.33;;;;;;;;;;5024415;28;20554;-67
2022/02/25 02:07:42;;;;;;;0.17;0.17;;;;;;;;;;5018592;28;20658;-68
2022/02/25 02:10:10;;;;;;;0.13;0.13;;;;;;;;;;5016859;28;20200;-68
2022/02/25 02:12:39;;;;;;;5.43;2.13;;;;;;;;;;5018034;28;20712;-67
2022/02/25 02:15:07;;;;;;;2.47;0.90;;;;;;;;;;5010961;28;20572;-67
2022/02/25 02:17:34;;;;;;;3.43;0.57;;;;;;;;;;5013683;28;20192;-68
2022/02/25 02:20:02;;;;;;;4.40;0.83;;;;;;;;;;5012218;28;20193;-67
2022/02/25 02:22:31;;;;;;;0.00;0.00;;;;;;;;;;5014620;28;20205;-67
2022/02/25 02:24:59;;;;;;;0.87;0.50;;;;;;;;;;5009544;28;20193;-68
2022/02/25 02:28:17;;;;;;;28.53;1.33;;;;;;;;;;5016560;28;20207;-69
2022/02/25 02:30:15;;;;;;;9.13;1.37;;;;;;;;;;5010841;28;20228;-67
2022/02/25 02:32:42;;;;;;;0.20;0.20;;;;;;;;;;5010408;28;20221;-67
2022/02/25 02:35:10;;;;;;;0.00;0.00;;;;;;;;;;5023351;28;20192;-68
2022/02/25 02:37:39;;;;;;;1.33;0.30;;;;;;;;;;5010897;28;20193;-67
2022/02/25 02:40:08;;;;;;;0.00;0.00;;;;;;;;;;5012124;28;20298;-67
2022/02/25 02:42:35;;;;;;;0.87;0.77;;;;;;;;;;5023541;28;20582;-67
2022/02/25 02:45:03;;;;;;;0.33;0.33;;;;;;;;;;5010200;28;20205;-67
2022/02/25 02:47:30;;;;;;;0.10;0.10;;;;;;;;;;5018854;28;20208;-69
2022/02/25 02:49:57;;;;;;;0.00;0.00;;;;;;;;;;5017521;28;20201;-68
2022/02/25 02:52:25;;;;;;;0.07;0.07;;;;;;;;;;5024961;28;20233;-69
2022/02/25 02:54:54;;;;;;;7.00;0.83;;;;;;;;;;5023921;28;20203;-68
2022/02/25 02:57:22;;;;;;;34.30;4.50;;;;;;;;;;5010764;28;20201;-67
2022/02/25 02:59:49;;;;;;;0.00;0.00;;;;;;;;;;5012419;28;20232;-68
2022/02/25 03:02:17;;;;;;;0.00;0.00;;;;;;;;;;5013549;28;20234;-69
2022/02/25 03:04:44;;;;;;;3.63;0.40;;;;;;;;;;5020257;28;20207;-68
2022/02/25 03:07:12;;;;;;;0.80;0.60;;;;;;;;;;5013586;28;20200;-67
2022/02/25 03:09:40;;;;;;;2.73;0.83;;;;;;;;;;5023118;28;20197;-67
2022/02/25 03:12:09;;;;;;;7.13;0.60;;;;;;;;;;5015389;28;20193;-67
2022/02/25 03:14:37;;;;;;;0.00;0.00;;;;;;;;;;5013587;28;20200;-68
2022/02/25 03:17:04;;;;;;;0.00;0.00;;;;;;;;;;5013215;28;20193;-69
2022/02/25 03:19:34;;;;;;;0.63;0.63;;;;;;;;;;5025951;28;20205;-67
2022/02/25 03:22:02;;;;;;;1.13;1.03;;;;;;;;;;5026993;28;20192;-69
2022/02/25 03:24:29;;;;;;;0.40;0.33;;;;;;;;;;5025569;28;20255;-67
2022/02/25 03:26:57;;;;;;;2.47;0.27;;;;;;;;;;5029568;28;20568;-67
2022/02/25 03:29:25;;;;;;;0.70;0.20;;;;;;;;;;5021559;28;20662;-68
2022/02/25 03:31:53;;;;;;;1.27;0.43;;;;;;;;;;5028724;28;20199;-67
2022/02/25 03:34:20;;;;;;;0.30;0.30;;;;;;;;;;5013210;28;20229;-68
2022/02/25 03:36:48;;;;;;;0.10;0.10;;;;;;;;;;5013328;28;20662;-67
2022/02/25 03:39:15;;;;;;;0.83;0.80;;;;;;;;;;5017252;28;20232;-68
2022/02/25 03:41:42;;;;;;;2.57;0.63;;;;;;;;;;5013311;28;20936;-67
2022/02/25 03:44:10;;;;;;;0.00;0.00;;;;;;;;;;5010952;28;20672;-68
2022/02/25 03:46:38;;;;;;;2.37;0.60;;;;;;;;;;5013195;28;20233;-68
2022/02/25 03:49:06;;;;;;;2.93;0.83;;;;;;;;;;5022633;28;20205;-68
2022/02/25 03:51:33;;;;;;;1.17;0.53;;;;;;;;;;5013359;28;20205;-68
2022/02/25 03:54:01;;;;;;;0.27;0.27;;;;;;;;;;5023904;28;20287;-67
2022/02/25 03:56:28;;;;;;;7.07;0.70;;;;;;;;;;5014246;28;20202;-67
2022/02/25 03:58:56;;;;;;;0.20;0.10;;;;;;;;;;5020127;28;20196;-69
2022/02/25 04:01:23;;;;;;;1.50;0.57;;;;;;;;;;5022244;28;20203;-67
2022/02/25 04:03:52;;;;;;;0.00;0.00;;;;;;;;;;5017735;28;20225;-67
2022/02/25 04:06:20;;;;;;;1.13;0.40;;;;;;;;;;5011406;28;20207;-67
2022/02/25 04:08:47;;;;;;;0.60;0.60;;;;;;;;;;5017212;28;20212;-69
2022/02/25 04:11:14;;;;;;;0.00;0.00;;;;;;;;;;5022383;28;20196;-67
2022/02/25 04:13:42;;;;;;;0.00;0.00;;;;;;;;;;5012420;28;20233;-67
2022/02/25 04:16:09;;;;;;;0.47;0.20;;;;;;;;;;5012346;28;20201;-67
2022/02/25 04:18:37;;;;;;;0.27;0.20;;;;;;;;;;5013805;28;20204;-67
2022/02/25 04:21:06;;;;;;;0.10;0.10;;;;;;;;;;5016257;28;20235;-68
2022/02/25 04:23:33;;;;;;;3.20;0.57;;;;;;;;;;5014041;28;20688;-67
2022/02/25 04:26:01;;;;;;;0.47;0.47;;;;;;;;;;5021585;28;20243;-68
2022/02/25 04:28:28;;;;;;;4.47;0.83;;;;;;;;;;5016031;28;20251;-67
2022/02/25 04:30:56;;;;;;;2.03;0.77;;;;;;;;;;5011529;28;20660;-67
2022/02/25 04:33:23;;;;;;;2.73;1.13;;;;;;;;;;5016211;28;20224;-68
2022/02/25 04:35:51;;;;;;;8.00;0.97;;;;;;;;;;5011921;28;20201;-68
2022/02/25 04:38:19;;;;;;;3.30;1.33;;;;;;;;;;5011549;28;20294;-67
2022/02/25 04:40:47;;;;;;;1.10;1.00;;;;;;;;;;5013540;28;20259;-67
2022/02/25 04:43:14;;;;;;;5.83;0.67;;;;;;;;;;5011324;28;20204;-69
2022/02/25 04:45:41;;;;;;;0.43;0.43;;;;;;;;;;5011745;28;20193;-67
2022/02/25 04:48:10;;;;;;;3.90;0.70;;;;;;;;;;5022294;28;20224;-67
2022/02/25 04:50:37;;;;;;;4.40;1.90;;;;;;;;;;5011737;28;20189;-67
2022/02/25 04:53:04;;;;;;;1.13;0.93;;;;;;;;;;5013222;28;20228;-67
2022/02/25 04:55:33;;;;;;;3.17;0.93;;;;;;;;;;5011494;28;20193;-68
2022/02/25 04:58:01;;;;;;;2.10;0.70;;;;;;;;;;5011324;28;20291;-67
2022/02/25 05:00:28;;;;;;;5.90;2.43;;;;;;;;;;5024795;28;20207;-67
2022/02/25 05:02:56;;;;;;;13.73;1.90;;;;;;;;;;5019214;28;20202;-67
2022/02/25 05:05:23;;;;;;;2.23;1.30;;;;;;;;;;5016015;28;20205;-67
2022/02/25 05:07:50;;;;;;;4.37;1.70;;;;;;;;;;5016027;28;20211;-67
2022/02/25 05:10:18;;;;;;;2.60;1.30;;;;;;;;;;5012941;28;20200;-68
2022/02/25 05:12:46;;;;;;;11.00;1.73;;;;;;;;;;5011596;28;20208;-70
2022/02/25 05:20:44;;;;;;;0.37;0.33;;;;;;;;;;5016118;28;20692;-67
2022/02/25 05:23:11;;;;;;;2.63;1.53;;;;;;;;;;5013102;28;20282;-68
2022/02/25 05:25:39;;;;;;;7.63;1.50;;;;;;;;;;5013976;28;20196;-67
2022/02/25 05:28:08;;;;;;;5.13;1.27;;;;;;;;;;5015167;28;20238;-67
2022/02/25 05:30:36;;;;;;;0.90;0.57;;;;;;;;;;5013654;28;20248;-66
2022/02/25 05:33:04;;;;;;;2.90;1.00;;;;;;;;;;5013357;28;20697;-67
2022/02/25 05:35:31;;;;;;;3.93;1.53;;;;;;;;;;5010769;28;20193;-66
2022/02/25 05:37:59;;;;;;;2.47;0.77;;;;;;;;;;5010951;28;20201;-66
2022/02/25 05:40:30;;;;;;;1.73;0.93;;;;;;;;;;5016034;28;20199;-68
2022/02/25 05:42:57;;;;;;;5.80;1.40;;;;;;;;;;5019293;28;20283;-66
2022/02/25 05:45:26;;;;;;;2.27;0.53;;;;;;;;;;5015757;28;20213;-68
2022/02/25 05:47:54;;;;;;;2.57;0.93;;;;;;;;;;5015872;28;20208;-67
2022/02/25 05:50:22;;;;;;;3.37;1.33;;;;;;;;;;5014471;28;20190;-66
2022/02/25 05:52:50;;;;;;;1.60;1.50;;;;;;;;;;5012676;28;20274;-66
2022/02/25 05:55:18;;;;;;;2.20;0.93;;;;;;;;;;5011043;28;20229;-66
2022/02/25 05:57:46;;;;;;;2.33;0.77;;;;;;;;;;5010526;28;20220;-66
2022/02/25 06:00:15;;;;;;;3.83;0.93;;;;;;;;;;5018311;28;20209;-67
2022/02/25 06:02:44;;;;;;;20.77;2.27;;;;;;;;;;5010872;28;20202;-67
2022/02/25 06:05:12;;;;;;;1.80;0.47;;;;;;;;;;5011548;28;20207;-67
2022/02/25 06:07:40;;;;;;;3.40;0.63;;;;;;;;;;5016459;28;20201;-67
2022/02/25 06:10:09;;;;;;;1.00;0.90;;;;;;;;;;5013533;28;20204;-66
2022/02/25 06:12:36;;;;;;;5.73;1.10;;;;;;;;;;5014334;28;20208;-66
2022/02/25 06:15:04;;;;;;;2.00;0.47;;;;;;;;;;5015965;28;20697;-66
2022/02/25 06:17:32;;;;;;;0.97;0.60;;;;;;;;;;5024675;28;20228;-69
2022/02/25 06:20:00;;;;;;;0.30;0.30;;;;;;;;;;5010530;28;20196;-66
2022/02/25 06:22:28;;;;;;;4.50;1.33;;;;;;;;;;5011672;28;20209;-67
2022/02/25 06:24:55;;;;;;;4.20;0.90;;;;;;;;;;5017376;28;20201;-67
2022/02/25 06:27:22;;;;;;;3.03;0.73;;;;;;;;;;5009805;28;20212;-67
2022/02/25 06:29:50;;;;;;;2.70;1.20;;;;;;;;;;5010074;28;20197;-66
2022/02/25 06:32:17;;;;;;;1.13;0.60;;;;;;;;;;5010385;28;20279;-66
2022/02/25 06:34:45;;;;;;;1.73;1.37;;;;;;;;;;5014491;28;20769;-68
2022/02/25 06:37:14;;;;;;;2.43;0.50;;;;;;;;;;5021456;28;20199;-68
2022/02/25 06:39:45;;;;;;;3.57;2.77;;;;;;;;;;5017837;28;20311;-66
2022/02/25 06:42:12;;;;;;;0.97;0.30;;;;;;;;;;5018493;28;20661;-66
2022/02/25 06:44:40;;;;;;;4.00;0.80;;;;;;;;;;5021643;28;20220;-66
2022/02/25 06:47:07;;;;;;;0.20;0.20;;;;;;;;;;5013999;28;20220;-67
2022/02/25 06:49:35;;;;;;;1.33;0.67;;;;;;;;;;5017866;28;20196;-70
2022/02/25 06:52:03;;;;;;;2.93;1.83;;;;;;;;;;5022323;28;20207;-68
2022/02/25 06:54:31;;;;;;;1.67;0.37;;;;;;;;;;5016327;28;20278;-67
2022/02/25 06:56:59;;;;;;;1.50;0.63;;;;;;;;;;5016938;28;20208;-67
2022/02/25 06:59:26;;;;;;;10.53;0.90;;;;;;;;;;5015472;28;20204;-68
2022/02/25 07:01:53;;;;;;;0.80;0.60;;;;;;;;;;5013365;28;20201;-68
2022/02/25 07:04:21;;;;;;;0.60;0.60;;;;;;;;;;5017258;28;20205;-67
2022/02/25 07:06:48;;;;;;;0.40;0.40;;;;;;;;;;5013888;28;20208;-67
2022/02/25 07:09:16;;;;;;;1.63;1.30;;;;;;;;;;5014526;28;20259;-66
2022/02/25 07:11:45;;;;;;;2.73;0.73;;;;;;;;;;5018805;28;20566;-67
2022/02/25 07:14:12;;;;;;;1.67;0.80;;;;;;;;;;5029234;28;20565;-67
2022/02/25 07:16:40;;;;;;;5.07;1.03;;;;;;;;;;5024311;28;20208;-69
2022/02/25 07:19:07;;;;;;;0.00;0.00;;;;;;;;;;5012086;28;20198;-70
2022/02/25 07:21:35;;;;;;;3.33;1.33;;;;;;;;;;5016505;28;20197;-69
2022/02/25 07:24:03;;;;;;;4.17;0.53;;;;;;;;;;5012511;28;20212;-69
2022/02/25 07:26:30;;;;;;;2.20;0.67;;;;;;;;;;5012975;28;20224;-68
2022/02/25 07:28:59;;;;;;;2.00;0.60;;;;;;;;;;5014111;28;20208;-69
2022/02/25 07:31:27;;;;;;;4.33;0.60;;;;;;;;;;5012797;28;20208;-68
2022/02/25 07:33:54;;;;;;;2.23;0.83;;;;;;;;;;5018978;28;20222;-69
2022/02/25 07:36:22;;;;;;;0.53;0.23;;;;;;;;;;5015306;28;20184;-68
2022/02/25 07:38:49;;;;;;;6.23;2.93;;;;;;;;;;5016123;28;20243;-70
2022/02/25 07:41:17;;;;;;;6.27;1.80;;;;;;;;;;5013010;28;20201;-69
2022/02/25 07:43:44;;;;;;;2.40;0.80;;;;;;;;;;5015202;28;20246;-72
2022/02/25 07:46:13;;;;;;;0.37;0.30;;;;;;;;;;5016670;28;20197;-70
2022/02/25 07:48:40;;;;;;;0.53;0.53;;;;;;;;;;5016687;28;20193;-68
2022/02/25 07:51:08;;;;;;;2.67;0.90;;;;;;;;;;5014559;28;20208;-70
2022/02/25 07:53:35;;;;;;;0.77;0.70;;;;;;;;;;5019865;28;20199;-72
2022/02/25 07:56:03;;;;;;;1.70;1.17;;;;;;;;;;5019992;28;20211;-71
2022/02/25 07:58:32;;;;;;;5.47;1.00;;;;;;;;;;5016631;28;20197;-70
2022/02/25 08:01:00;;;;;;;7.23;0.93;;;;;;;;;;5013856;28;20284;-69
2022/02/25 08:03:29;;;;;;;0.33;0.33;;;;;;;;;;5012070;28;20259;-68
2022/02/25 08:05:56;;;;;;;1.07;0.40;;;;;;;;;;5015606;28;20981;-69
2022/02/25 08:08:24;;;;;;;1.30;0.77;;;;;;;;;;5012881;28;20203;-70
2022/02/25 08:10:52;;;;;;;6.40;2.20;;;;;;;;;;5013186;28;20975;-68
2022/02/25 08:13:20;;;;;;;1.20;0.50;;;;;;;;;;5013620;28;20204;-69
2022/02/25 08:15:47;;;;;;;2.73;1.70;;;;;;;;;;5013574;28;20327;-69
2022/02/25 08:18:14;;;;;;;3.77;1.10;;;;;;;;;;5015414;28;20207;-69
2022/02/25 08:20:43;;;;;;;1.23;0.87;;;;;;;;;;5013987;28;20203;-68
2022/02/25 08:23:11;;;;;;;4.80;1.30;;;;;;;;;;5014741;28;20245;-68
2022/02/25 08:25:38;;;;;;;2.77;0.60;;;;;;;;;;5017074;28;20495;-71
2022/02/25 08:28:07;;;;;;;0.00;0.00;;;;;;;;;;5013824;28;20550;-69
2022/02/25 08:30:34;;;;;;;10.33;1.80;;;;;;;;;;5007668;28;20205;-69
2022/02/25 08:33:02;;;;;;;3.03;1.00;;;;;;;;;;5012629;28;20335;-69
2022/02/25 08:35:30;;;;;;;0.90;0.70;;;;;;;;;;5020784;28;20221;-68
2022/02/25 08:37:59;;;;;;;2.60;0.50;;;;;;;;;;5014329;28;20288;-68
2022/02/25 08:40:27;;;;;;;0.60;0.33;;;;;;;;;;5017929;28;20239;-69
2022/02/25 08:42:55;;;;;;;0.70;0.70;;;;;;;;;;5015064;28;20211;-69
2022/02/25 08:45:22;;;;;;;5.80;1.07;;;;;;;;;;5011317;28;20204;-69
2022/02/25 08:47:50;;;;;;;0.10;0.03;;;;;;;;;;5010576;28;20201;-68
2022/02/25 08:50:19;;;;;;;0.93;0.67;;;;;;;;;;5009671;28;20566;-69
2022/02/25 08:52:47;;;;;;;0.33;0.30;;;;;;;;;;5010370;28;20673;-69
2022/02/25 08:55:16;;;;;;;1.03;0.50;;;;;;;;;;5011756;28;20231;-68
2022/02/25 08:57:44;;;;;;;14.43;0.77;;;;;;;;;;5018135;28;20215;-70
2022/02/25 09:00:13;;;;;;;2.20;0.87;;;;;;;;;;5027318;28;20188;-69
2022/02/25 09:02:41;;;;;;;4.27;1.07;;;;;;;;;;5014535;28;20661;-69
2022/02/25 09:05:09;;;;;;;1.87;1.00;;;;;;;;;;5009075;28;20658;-70
2022/02/25 09:07:36;;;;;;;2.90;0.70;;;;;;;;;;5016201;28;20203;-69
2022/02/25 09:10:05;;;;;;;2.10;0.30;;;;;;;;;;5010292;28;20684;-70
2022/02/25 09:12:34;;;;;;;3.20;2.00;;;;;;;;;;5014969;28;20203;-69
2022/02/25 09:15:02;;;;;;;7.33;1.77;;;;;;;;;;5013215;28;20233;-70
2022/02/25 09:17:29;;;;;;;0.40;0.40;;;;;;;;;;5012649;28;20207;-69
2022/02/25 09:19:56;;;;;;;11.50;1.10;;;;;;;;;;5011256;28;20199;-69
2022/02/25 09:22:24;;;;;;;0.50;0.30;;;;;;;;;;5011105;28;20215;-69
2022/02/25 09:24:51;;;;;;;2.63;1.07;;;;;;;;;;5010148;28;20201;-69
2022/02/25 09:27:19;;;;;;;0.63;0.63;;;;;;;;;;5010386;28;20193;-69
2022/02/25 09:29:48;;;;;;;2.17;0.67;;;;;;;;;;5012276;28;20204;-69
2022/02/25 09:32:15;;;;;;;0.40;0.40;;;;;;;;;;5020381;28;20197;-69
2022/02/25 09:34:42;;;;;;;0.90;0.50;;;;;;;;;;5021675;28;20228;-69
2022/02/25 09:37:10;;;;;;;2.10;0.90;;;;;;;;;;5025713;28;20196;-69
2022/02/25 09:39:37;;;;;;;2.40;0.90;;;;;;;;;;5011800;28;21071;-69
2022/02/25 09:42:06;;;;;;;5.53;1.80;;;;;;;;;;5012253;28;20247;-69
2022/02/25 09:44:34;;;;;;;2.93;0.70;;;;;;;;;;5016223;28;20210;-70
2022/02/25 09:47:03;;;;;;;1.33;0.20;;;;;;;;;;5011002;28;20201;-68
2022/02/25 09:49:31;;;;;;;1.50;0.57;;;;;;;;;;5010667;28;20201;-69
2022/02/25 09:51:59;;;;;;;0.30;0.30;;;;;;;;;;5011041;28;20232;-72
2022/02/25 09:54:26;;;;;;;1.93;1.17;;;;;;;;;;5015932;28;20224;-71
2022/02/25 09:56:54;;;;;;;6.83;0.67;;;;;;;;;;5011785;28;20204;-71
2022/02/25 09:59:22;;;;;;;0.30;0.30;;;;;;;;;;5023819;28;20255;-70
2022/02/25 10:01:49;;;;;;;0.83;0.30;;;;;;;;;;5025061;28;20197;-70
2022/02/25 10:04:20;;;;;;;3.23;0.37;;;;;;;;;;5032336;28;20199;-70
2022/02/25 10:06:47;;;;;;;1.40;0.47;;;;;;;;;;5031104;28;20200;-69
2022/02/25 10:09:16;;;;;;;1.37;0.80;;;;;;;;;;5033184;28;20754;-70
2022/02/25 10:12:06;;;;;;;6.50;1.03;;;;;;;;;;5030698;28;20219;-69
2022/02/25 10:14:35;;;;;;;2.77;1.17;;;;;;;;;;5034931;28;20228;-70
2022/02/25 10:17:13;;;;;;;6.30;1.40;;;;;;;;;;5025072;28;20207;-70
2022/02/25 10:19:43;;;;;;;4.17;1.23;;;;;;;;;;5028048;28;20249;-70
2022/02/25 10:22:21;;;;;;;0.00;0.00;;;;;;;;;;5034871;28;20581;-69
2022/02/25 10:24:50;;;;;;;1.97;1.40;;;;;;;;;;5015144;28;20712;-69
2022/02/25 10:27:23;;;;;;;1.17;0.83;;;;;;;;;;5018166;28;20243;-70
2022/02/25 10:29:59;;;;;;;0.60;0.30;;;;;;;;;;5016086;28;20209;-69
2022/02/25 10:32:31;;;;;;;1.53;0.93;;;;;;;;;;5031891;28;20203;-71
2022/02/25 10:35:00;;;;;;;2.43;0.17;;;;;;;;;;5034703;28;20778;-72
2022/02/25 10:37:27;;;;;;;1.50;0.53;;;;;;;;;;5027108;28;20199;-72
2022/02/25 10:39:55;;;;;;;3.40;1.30;;;;;;;;;;5032800;28;20234;-70
2022/02/25 10:42:24;;;;;;;1.10;0.50;;;;;;;;;;5032459;28;20304;-68
2022/02/25 10:44:55;;;;;;;2.23;0.80;;;;;;;;;;5030477;28;20729;-71
2022/02/25 10:47:34;;;;;;;1.50;0.37;;;;;;;;;;5038562;28;20239;-68
2022/02/25 10:50:04;;;;;;;0.67;0.50;;;;;;;;;;5050685;28;20279;-71
2022/02/25 10:52:33;;;;;;;0.77;0.40;;;;;;;;;;5018440;28;20200;-71
2022/02/25 10:55:01;;;;;;;4.23;0.80;;;;;;;;;;5016133;28;20617;-71
2022/02/25 10:57:29;;;;;;;1.27;1.17;;;;;;;;;;5013950;28;20197;-71
2022/02/25 10:59:58;;;;;;;1.07;0.30;;;;;;;;;;5013663;28;20204;-70
2022/02/25 11:02:31;;;;;;;0.30;0.20;;;;;;;;;;5018295;28;20199;-73
2022/02/25 11:05:07;;;;;;;4.80;1.17;;;;;;;;;;5021040;28;20219;-71
2022/02/25 11:07:35;;;;;;;2.13;1.00;;;;;;;;;;5017531;28;20204;-72
2022/02/25 11:10:03;;;;;;;4.30;1.23;;;;;;;;;;5013970;28;20232;-73
2022/02/25 11:12:30;;;;;;;0.07;0.07;;;;;;;;;;5012977;28;20203;-71
2022/02/25 11:14:58;;;;;;;3.13;1.47;;;;;;;;;;5014894;28;20232;-71
2022/02/25 11:17:26;;;;;;;0.37;0.37;;;;;;;;;;5015625;28;20966;-70
2022/02/25 11:19:56;;;;;;;1.37;0.80;;;;;;;;;;5016664;28;20589;-71
2022/02/25 11:22:27;;;;;;;0.67;0.47;;;;;;;;;;5012588;28;20200;-70
2022/02/25 11:24:55;;;;;;;3.37;0.87;;;;;;;;;;5015452;28;20244;-71
2022/02/25 11:27:22;;;;;;;6.23;0.83;;;;;;;;;;5018791;28;20263;-71
2022/02/25 11:29:57;;;;;;;0.37;0.20;;;;;;;;;;5016900;28;20208;-71
2022/02/25 11:32:28;;;;;;;0.23;0.23;;;;;;;;;;5015328;28;20601;-73
2022/02/25 11:34:55;;;;;;;0.90;0.67;;;;;;;;;;5013599;28;20197;-71
2022/02/25 11:37:43;;;;;;;0.30;0.30;;;;;;;;;;5012800;28;20205;-70
2022/02/25 11:40:11;;;;;;;2.10;0.60;;;;;;;;;;5025973;28;20708;-70
2022/02/25 11:42:39;;;;;;;2.83;1.33;;;;;;;;;;5013561;28;20246;-70
2022/02/25 11:45:20;;;;;;;2.03;0.40;;;;;;;;;;5020458;28;20280;-68
2022/02/25 11:47:52;;;;;;;1.30;0.67;;;;;;;;;;5022938;28;20204;-67
2022/02/25 11:50:34;;;;;;;2.27;1.07;;;;;;;;;;5028465;28;20207;-70
2022/02/25 11:53:16;;;;;;;0.00;0.00;;;;;;;;;;5020453;28;20287;-69
2022/02/25 11:55:44;;;;;;;0.93;0.30;;;;;;;;;;5032856;28;20229;-73
2022/02/25 11:58:30;;;;;;;0.23;0.20;;;;;;;;;;5018825;28;20291;-69
2022/02/25 12:01:07;;;;;;;0.73;0.20;;;;;;;;;;5031932;28;20291;-70
2022/02/25 12:03:36;;;;;;;0.10;0.10;;;;;;;;;;5030136;28;20196;-69
2022/02/25 12:06:04;;;;;;;0.00;0.00;;;;;;;;;;5030044;28;20677;-69
2022/02/25 12:08:34;;;;;;;0.40;0.40;;;;;;;;;;5028773;28;20700;-70
2022/02/25 12:11:02;;;;;;;1.17;0.63;;;;;;;;;;5026602;28;20232;-70
2022/02/25 12:13:30;;;;;;;0.33;0.33;;;;;;;;;;5033210;28;20232;-69
2022/02/25 12:15:58;;;;;;;0.00;0.00;;;;;;;;;;5031536;28;20601;-71
2022/02/25 12:18:39;;;;;;;0.10;0.10;;;;;;;;;;5042194;28;20302;-70
2022/02/25 12:21:10;;;;;;;4.27;2.63;;;;;;;;;;5050815;28;20204;-69
2022/02/25 12:23:43;;;;;;;0.30;0.30;;;;;;;;;;5027614;28;20669;-70
2022/02/25 12:26:11;;;;;;;0.73;0.47;;;;;;;;;;5011631;28;20635;-70
2022/02/25 12:28:44;;;;;;;0.00;0.00;;;;;;;;;;5012219;28;20194;-69
2022/02/25 12:31:12;;;;;;;0.23;0.10;;;;;;;;;;5011312;28;20205;-69
2022/02/25 12:33:40;;;;;;;0.50;0.50;;;;;;;;;;5017181;28;20650;-70
2022/02/25 12:36:09;;;;;;;0.23;0.13;;;;;;;;;;5015612;28;20301;-71
2022/02/25 12:38:38;;;;;;;3.77;1.17;;;;;;;;;;5015229;28;20232;-69
2022/02/25 12:41:12;;;;;;;4.43;0.60;;;;;;;;;;5013964;28;20205;-69
2022/02/25 12:43:46;;;;;;;0.07;0.07;;;;;;;;;;5012516;28;20912;-70
2022/02/25 12:46:14;;;;;;;0.00;0.00;;;;;;;;;;5014250;28;20745;-71
2022/02/25 12:48:41;;;;;;;0.00;0.00;;;;;;;;;;5015170;28;20208;-71
2022/02/25 12:51:09;;;;;;;0.00;0.00;;;;;;;;;;5016074;28;20204;-71
2022/02/25 12:53:49;;;;;;;0.10;0.10;;;;;;;;;;5017011;28;20196;-70
2022/02/25 12:56:21;;;;;;;0.10;0.10;;;;;;;;;;5012353;28;20224;-70
2022/02/25 12:58:49;;;;;;;0.00;0.00;;;;;;;;;;5013015;28;20284;-68
2022/02/25 13:01:20;;;;;;;0.00;0.00;;;;;;;;;;5016110;28;20200;-67
2022/02/25 13:03:57;;;;;;;0.93;0.10;;;;;;;;;;5016736;28;20566;-68
2022/02/25 13:06:26;;;;;;;1.37;0.90;;;;;;;;;;5015936;28;20204;-70
2022/02/25 13:08:55;;;;;;;0.10;0.10;;;;;;;;;;5026310;28;20197;-68
2022/02/25 13:11:24;;;;;;;0.10;0.10;;;;;;;;;;5011505;28;20247;-71
2022/02/25 13:13:52;;;;;;;0.10;0.10;;;;;;;;;;5014665;28;20251;-68
2022/02/25 13:16:20;;;;;;;0.67;0.67;;;;;;;;;;5011149;28;20251;-70
2022/02/25 13:18:47;;;;;;;0.00;0.00;;;;;;;;;;5018052;28;20301;-69
2022/02/25 13:21:15;;;;;;;0.10;0.10;;;;;;;;;;5025124;28;20193;-74
2022/02/25 13:23:48;;;;;;;0.00;0.00;;;;;;;;;;5019589;28;20207;-70
2022/02/25 13:26:20;;;;;;;0.10;0.10;;;;;;;;;;5017355;28;20200;-68
2022/02/25 13:28:49;;;;;;;0.27;0.27;;;;;;;;;;5013639;28;20200;-69
2022/02/25 13:31:26;;;;;;;3.10;0.40;;;;;;;;;;5009536;28;20213;-69
2022/02/25 13:33:54;;;;;;;1.13;0.30;;;;;;;;;;5019900;28;20688;-69
2022/02/25 13:36:23;;;;;;;0.00;0.00;;;;;;;;;;5011009;28;20225;-70
2022/02/25 13:38:56;;;;;;;2.80;0.20;;;;;;;;;;5015871;28;20764;-70
2022/02/25 13:41:26;;;;;;;0.00;0.00;;;;;;;;;;5015287;28;20223;-69
2022/02/25 13:43:55;;;;;;;0.17;0.17;;;;;;;;;;5015659;28;20201;-69
2022/02/25 13:46:24;;;;;;;0.00;0.00;;;;;;;;;;5012500;28;20207;-70
2022/02/25 13:54:40;;;;;;;0.17;0.17;;;;;;;;;;4949351;28;20385;-70
2022/02/25 13:57:12;;;;;;;0.00;0.00;;;;;;;;;;4952488;28;20674;-72
2022/02/25 13:59:45;;;;;;;0.10;0.10;;;;;;;;;;4949437;28;20206;-69
2022/02/25 14:02:13;;;;;;;0.30;0.20;;;;;;;;;;4956576;28;20250;-69
2022/02/25 14:04:40;;;;;;;0.00;0.00;;;;;;;;;;4951108;28;20210;-70
2022/02/25 14:07:09;;;;;;;0.13;0.07;;;;;;;;;;4959297;28;20216;-73
2022/02/25 14:09:38;;;;;;;1.77;0.50;;;;;;;;;;4962043;28;20731;-69
2022/02/25 14:12:10;;;;;;;0.07;0.07;;;;;;;;;;4959635;28;20218;-69
2022/02/25 14:14:38;;;;;;;0.00;0.00;;;;;;;;;;4960923;28;20221;-70
2022/02/25 14:17:14;;;;;;;0.00;0.00;;;;;;;;;;4960156;28;20230;-70
2022/02/25 14:19:41;;;;;;;0.20;0.20;;;;;;;;;;4962788;28;21282;-70
2022/02/25 14:22:13;;;;;;;9.93;1.60;;;;;;;;;;4955086;28;20221;-71
2022/02/25 14:24:45;;;;;;;0.00;0.00;;;;;;;;;;4960314;28;20206;-68
2022/02/25 14:27:15;;;;;;;5.70;0.40;;;;;;;;;;5018548;28;20661;-68
2022/02/25 14:29:43;;;;;;;2.27;0.63;;;;;;;;;;5022243;28;20251;-71
2022/02/25 14:32:14;;;;;;;0.00;0.00;;;;;;;;;;5023545;28;20227;-68
2022/02/25 14:34:44;;;;;;;0.00;0.00;;;;;;;;;;5021098;28;20561;-70
2022/02/25 14:37:21;;;;;;;0.00;0.00;;;;;;;;;;5022276;28;20641;-70
2022/02/25 14:39:48;;;;;;;0.00;0.00;;;;;;;;;;5020208;28;20236;-74
2022/02/25 14:42:16;;;;;;;0.00;0.00;;;;;;;;;;5019851;28;20204;-69
2022/02/25 14:44:43;;;;;;;0.00;0.00;;;;;;;;;;5023165;28;20216;-71
2022/02/25 14:47:10;;;;;;;0.00;0.00;;;;;;;;;;5023153;28;20211;-80
2022/02/25 14:49:40;;;;;;;0.23;0.17;;;;;;;;;;5023112;28;20208;-72
2022/02/25 14:52:07;;;;;;;0.00;0.00;;;;;;;;;;5019858;28;20236;-71
2022/02/25 14:54:35;;;;;;;0.00;0.00;;;;;;;;;;5012721;28;20193;-71
2022/02/25 14:57:05;;;;;;;0.00;0.00;;;;;;;;;;5019679;28;20231;-72
2022/02/25 14:59:33;;;;;;;0.00;0.00;;;;;;;;;;5013819;28;20201;-69
2022/02/25 15:02:00;;;;;;;0.00;0.00;;;;;;;;;;5017582;28;20287;-70
2022/02/25 15:04:28;;;;;;;0.00;0.00;;;;;;;;;;5020097;28;20239;-70